createdAt,value
2023-04-12T00:00:33.380Z,7.75
2023-04-12T00:01:29.258Z,7.75
2023-04-12T00:02:24.529Z,7.72
2023-04-12T00:03:19.657Z,7.66
2023-04-12T00:04:16.255Z,7.59
2023-04-12T00:05:12.075Z,7.55
2023-04-12T00:06:07.127Z,7.51
2023-04-12T00:07:02.352Z,7.51
2023-04-12T00:07:57.533Z,7.50
2023-04-12T00:08:54.034Z,7.45
2023-04-12T00:09:49.516Z,7.42
2023-04-12T00:10:43.923Z,7.42
2023-04-12T00:11:39.318Z,7.42
2023-04-12T00:12:34.183Z,7.41
2023-04-12T00:13:29.294Z,7.41
2023-04-12T00:14:24.291Z,7.43
2023-04-12T00:15:19.398Z,7.41
2023-04-12T00:16:15.025Z,7.39
2023-04-12T00:17:09.545Z,7.40
2023-04-12T00:18:04.630Z,7.41
2023-04-12T00:18:59.758Z,7.42
2023-04-12T00:19:54.704Z,7.41
2023-04-12T00:20:49.769Z,7.40
2023-04-12T00:21:44.791Z,7.40
2023-04-12T00:22:39.857Z,7.39
2023-04-12T00:23:34.907Z,7.41
2023-04-12T00:24:29.964Z,7.40
2023-04-12T00:25:25.000Z,7.40
2023-04-12T00:26:20.194Z,7.32
2023-04-12T00:27:15.060Z,7.29
2023-04-12T00:28:10.694Z,7.23
2023-04-12T00:29:05.832Z,7.22
2023-04-12T00:30:01.029Z,7.19
2023-04-12T00:30:56.185Z,7.21
2023-04-12T00:31:51.668Z,7.21
2023-04-12T00:32:46.819Z,7.23
2023-04-12T00:33:43.235Z,7.20
2023-04-12T00:34:38.215Z,7.22
2023-04-12T00:35:33.558Z,7.23
2023-04-12T00:36:28.737Z,7.23
2023-04-12T00:37:23.774Z,7.20
2023-04-12T00:38:18.962Z,7.21
2023-04-12T00:39:14.132Z,7.22
2023-04-12T00:40:09.264Z,7.20
2023-04-12T00:41:04.479Z,7.18
2023-04-12T00:41:59.784Z,7.18
2023-04-12T00:42:54.813Z,7.15
2023-04-12T00:43:49.983Z,7.12
2023-04-12T00:44:45.217Z,7.11
2023-04-12T00:45:40.332Z,7.09
2023-04-12T00:46:35.745Z,7.10
2023-04-12T00:47:30.647Z,7.11
2023-04-12T00:48:25.841Z,7.11
2023-04-12T00:49:20.970Z,7.14
2023-04-12T00:50:16.284Z,7.15
2023-04-12T00:51:11.327Z,7.11
2023-04-12T00:52:06.705Z,7.08
2023-04-12T00:53:01.584Z,7.07
2023-04-12T00:53:56.911Z,7.09
2023-04-12T00:54:52.123Z,7.10
2023-04-12T00:55:47.152Z,7.03
2023-04-12T00:56:42.283Z,7.03
2023-04-12T00:57:37.505Z,7.05
2023-04-12T00:58:32.690Z,7.05
2023-04-12T00:59:27.726Z,7.06
2023-04-12T01:00:22.770Z,7.09
2023-04-12T01:01:18.109Z,7.09
2023-04-12T01:02:12.908Z,7.08
2023-04-12T01:03:08.259Z,7.09
2023-04-12T01:04:03.173Z,7.09
2023-04-12T01:04:58.417Z,7.02
2023-04-12T01:05:53.556Z,6.94
2023-04-12T01:06:48.888Z,6.94
2023-04-12T01:07:43.909Z,6.97
2023-04-12T01:08:38.993Z,6.99
2023-04-12T01:09:34.888Z,7.02
2023-04-12T01:10:29.104Z,7.06
2023-04-12T01:11:24.170Z,7.05
2023-04-12T01:12:19.174Z,7.04
2023-04-12T01:13:14.210Z,7.02
2023-04-12T01:14:09.260Z,7.01
2023-04-12T01:15:04.279Z,7.02
2023-04-12T01:15:59.300Z,7.05
2023-04-12T01:16:54.553Z,7.08
2023-04-12T01:17:49.433Z,7.09
2023-04-12T01:18:44.448Z,7.11
2023-04-12T01:19:39.627Z,7.13
2023-04-12T01:20:34.968Z,7.14
2023-04-12T01:21:30.396Z,7.09
2023-04-12T01:23:56.740Z,6.58
2023-04-12T01:24:50.751Z,6.77
2023-04-12T01:25:45.994Z,6.85
2023-04-12T01:26:41.021Z,6.92
2023-04-12T01:27:36.178Z,6.96
2023-04-12T01:28:31.293Z,6.99
2023-04-12T01:29:26.475Z,7.00
2023-04-12T01:30:21.598Z,7.04
2023-04-12T01:31:16.945Z,7.07
2023-04-12T01:32:11.861Z,7.09
2023-04-12T01:33:07.111Z,7.10
2023-04-12T01:34:02.762Z,7.10
2023-04-12T01:34:57.289Z,7.11
2023-04-12T01:35:52.442Z,7.11
2023-04-12T01:36:47.616Z,7.12
2023-04-12T01:37:42.737Z,7.12
2023-04-12T01:38:37.914Z,7.15
2023-04-12T01:39:33.059Z,7.18
2023-04-12T01:40:28.202Z,7.18
2023-04-12T01:41:23.326Z,7.16
2023-04-12T01:42:18.527Z,7.16
2023-04-12T01:43:13.679Z,7.16
2023-04-12T01:44:08.992Z,7.16
2023-04-12T01:45:04.010Z,7.14
2023-04-12T01:45:59.175Z,7.12
2023-04-12T01:46:54.505Z,7.12
2023-04-12T01:47:49.599Z,7.11
2023-04-12T01:48:44.703Z,7.13
2023-04-12T01:49:39.883Z,7.12
2023-04-12T01:50:35.031Z,7.09
2023-04-12T01:51:30.352Z,7.07
2023-04-12T01:52:25.239Z,7.08
2023-04-12T01:53:20.390Z,7.07
2023-04-12T01:54:15.654Z,7.07
2023-04-12T01:55:10.710Z,7.07
2023-04-12T01:56:05.994Z,7.07
2023-04-12T01:57:01.021Z,7.06
2023-04-12T01:57:56.169Z,7.06
2023-04-12T01:58:51.351Z,7.05
2023-04-12T01:59:46.419Z,7.06
2023-04-12T02:00:41.533Z,7.09
2023-04-12T02:01:36.881Z,7.10
2023-04-12T02:02:31.886Z,7.11
2023-04-12T02:03:26.997Z,7.08
2023-04-12T02:04:22.245Z,7.04
2023-04-12T02:05:17.295Z,7.02
2023-04-12T02:06:12.503Z,7.02
2023-04-12T02:07:07.691Z,7.02
2023-04-12T02:08:02.919Z,7.02
2023-04-12T02:08:58.006Z,6.98
2023-04-12T02:09:53.224Z,6.98
2023-04-12T02:10:48.393Z,6.98
2023-04-12T02:11:43.583Z,7.00
2023-04-12T02:12:38.801Z,7.03
2023-04-12T02:13:33.845Z,7.04
2023-04-12T02:14:29.113Z,7.05
2023-04-12T02:15:24.178Z,7.04
2023-04-12T02:16:19.308Z,7.04
2023-04-12T02:17:14.486Z,7.00
2023-04-12T02:18:09.746Z,6.96
2023-04-12T02:19:04.823Z,6.93
2023-04-12T02:19:59.979Z,6.96
2023-04-12T02:20:55.152Z,6.99
2023-04-12T02:21:50.334Z,7.00
2023-04-12T02:22:45.549Z,6.98
2023-04-12T02:23:40.683Z,7.01
2023-04-12T02:24:35.989Z,7.03
2023-04-12T02:25:31.016Z,6.99
2023-04-12T02:26:26.169Z,7.00
2023-04-12T02:27:21.332Z,7.01
2023-04-12T02:28:16.491Z,7.02
2023-04-12T02:29:11.624Z,7.04
2023-04-12T02:30:06.816Z,7.07
2023-04-12T02:31:02.019Z,7.06
2023-04-12T02:31:57.174Z,7.06
2023-04-12T02:32:52.375Z,7.07
2023-04-12T02:33:47.520Z,7.10
2023-04-12T02:34:42.894Z,7.07
2023-04-12T02:35:37.965Z,7.02
2023-04-12T02:36:32.965Z,7.00
2023-04-12T02:37:28.318Z,6.97
2023-04-12T02:38:23.288Z,6.95
2023-04-12T02:39:18.508Z,6.95
2023-04-12T02:40:13.592Z,6.95
2023-04-12T02:41:08.738Z,6.95
2023-04-12T02:42:04.052Z,6.95
2023-04-12T02:42:59.126Z,6.92
2023-04-12T02:43:54.291Z,6.91
2023-04-12T02:44:49.605Z,6.91
2023-04-12T02:45:44.620Z,6.91
2023-04-12T02:46:39.770Z,6.87
2023-04-12T02:47:35.148Z,6.87
2023-04-12T02:48:30.177Z,6.88
2023-04-12T02:49:25.323Z,6.89
2023-04-12T02:50:20.478Z,6.94
2023-04-12T02:51:15.635Z,6.97
2023-04-12T02:52:10.796Z,7.01
2023-04-12T02:53:05.990Z,7.01
2023-04-12T02:54:01.154Z,6.97
2023-04-12T02:54:56.423Z,6.95
2023-04-12T02:55:51.473Z,6.96
2023-04-12T02:56:46.651Z,6.99
2023-04-12T02:57:41.776Z,6.98
2023-04-12T02:58:36.925Z,6.95
2023-04-12T02:59:32.213Z,6.93
2023-04-12T03:00:27.397Z,6.86
2023-04-12T03:01:22.435Z,6.83
2023-04-12T03:02:17.519Z,6.83
2023-04-12T03:03:12.799Z,6.82
2023-04-12T03:04:08.081Z,6.82
2023-04-12T03:05:03.167Z,6.84
2023-04-12T03:05:58.239Z,6.85
2023-04-12T03:06:53.385Z,6.89
2023-04-12T03:07:48.543Z,6.91
2023-04-12T03:08:43.782Z,6.94
2023-04-12T03:09:38.878Z,6.99
2023-04-12T03:10:34.085Z,7.06
2023-04-12T03:11:29.258Z,7.10
2023-04-12T03:12:24.411Z,7.12
2023-04-12T03:13:19.603Z,7.11
2023-04-12T03:14:14.808Z,7.05
2023-04-12T03:15:10.120Z,7.03
2023-04-12T03:16:05.186Z,6.99
2023-04-12T03:17:00.366Z,6.98
2023-04-12T03:17:55.628Z,6.96
2023-04-12T03:18:50.793Z,6.93
2023-04-12T03:19:45.843Z,6.89
2023-04-12T03:20:40.906Z,6.82
2023-04-12T03:21:36.114Z,6.82
2023-04-12T03:22:31.249Z,6.84
2023-04-12T03:23:26.742Z,6.81
2023-04-12T03:24:21.754Z,6.81
2023-04-12T03:25:16.919Z,6.80
2023-04-12T03:26:11.963Z,6.81
2023-04-12T03:27:07.103Z,6.84
2023-04-12T03:28:02.325Z,6.84
2023-04-12T03:28:57.528Z,6.86
2023-04-12T03:29:52.693Z,6.88
2023-04-12T03:30:48.061Z,6.87
2023-04-12T03:31:43.124Z,6.85
2023-04-12T03:32:38.297Z,6.86
2023-04-12T03:33:33.352Z,6.87
2023-04-12T03:34:28.523Z,6.89
2023-04-12T03:35:23.807Z,6.89
2023-04-12T03:36:18.860Z,6.86
2023-04-12T03:37:14.030Z,6.86
2023-04-12T03:38:09.241Z,6.86
2023-04-12T03:39:04.355Z,6.83
2023-04-12T03:39:59.539Z,6.82
2023-04-12T03:40:54.859Z,6.82
2023-04-12T03:41:49.865Z,6.79
2023-04-12T03:42:45.007Z,6.77
2023-04-12T03:43:40.205Z,6.78
2023-04-12T03:44:35.351Z,6.79
2023-04-12T03:45:30.868Z,6.80
2023-04-12T03:46:25.943Z,6.79
2023-04-12T03:47:20.958Z,6.80
2023-04-12T03:48:16.105Z,6.81
2023-04-12T03:49:11.483Z,6.85
2023-04-12T03:50:11.441Z,6.84
2023-04-12T03:51:02.727Z,6.86
2023-04-12T03:51:56.797Z,6.86
2023-04-12T03:52:51.978Z,6.89
2023-04-12T03:53:47.167Z,6.90
2023-04-12T03:54:42.339Z,6.91
2023-04-12T03:55:37.628Z,6.89
2023-04-12T03:56:32.701Z,6.88
2023-04-12T03:57:27.808Z,6.86
2023-04-12T03:58:23.019Z,6.87
2023-04-12T03:59:18.375Z,6.88
2023-04-12T04:00:13.287Z,6.87
2023-04-12T04:01:08.567Z,6.85
2023-04-12T04:02:03.651Z,6.79
2023-04-12T04:02:58.819Z,6.74
2023-04-12T04:03:54.175Z,6.75
2023-04-12T04:04:49.024Z,6.75
2023-04-12T04:05:44.305Z,6.73
2023-04-12T04:06:39.355Z,6.73
2023-04-12T04:07:34.559Z,6.71
2023-04-12T04:08:29.698Z,6.73
2023-04-12T04:09:24.923Z,6.75
2023-04-12T04:10:20.036Z,6.69
2023-04-12T04:11:15.224Z,6.69
2023-04-12T04:12:10.350Z,6.71
2023-04-12T04:13:05.540Z,6.70
2023-04-12T04:14:00.999Z,6.70
2023-04-12T04:14:56.005Z,6.64
2023-04-12T04:15:51.168Z,6.64
2023-04-12T04:16:46.391Z,6.64
2023-04-12T04:17:41.353Z,6.65
2023-04-12T04:18:36.827Z,6.65
2023-04-12T04:19:31.773Z,6.64
2023-04-12T04:20:27.935Z,6.64
2023-04-12T04:21:22.101Z,6.62
2023-04-12T04:22:17.281Z,6.63
2023-04-12T04:23:12.455Z,6.65
2023-04-12T04:24:07.814Z,6.66
2023-04-12T04:25:02.820Z,6.65
2023-04-12T04:25:58.193Z,6.64
2023-04-12T04:26:53.288Z,6.64
2023-04-12T04:29:17.085Z,6.31
2023-04-12T04:30:09.284Z,6.52
2023-04-12T04:31:04.521Z,6.59
2023-04-12T04:31:59.853Z,6.63
2023-04-12T04:32:55.145Z,6.64
2023-04-12T04:33:50.500Z,6.64
2023-04-12T04:34:45.463Z,6.62
2023-04-12T04:35:40.733Z,6.63
2023-04-12T04:36:35.848Z,6.64
2023-04-12T04:37:31.148Z,6.62
2023-04-12T04:38:26.296Z,6.61
2023-04-12T04:39:21.534Z,6.61
2023-04-12T04:40:16.600Z,6.62
2023-04-12T04:41:11.804Z,6.62
2023-04-12T04:42:07.082Z,6.63
2023-04-12T04:43:02.382Z,6.64
2023-04-12T04:43:57.747Z,6.64
2023-04-12T04:44:52.651Z,6.63
2023-04-12T04:45:47.942Z,6.63
2023-04-12T04:46:43.330Z,6.62
2023-04-12T04:47:38.479Z,6.58
2023-04-12T04:48:33.779Z,6.55
2023-04-12T04:49:29.177Z,6.56
2023-04-12T04:50:24.378Z,6.59
2023-04-12T04:51:19.640Z,6.63
2023-04-12T04:52:15.017Z,6.66
2023-04-12T04:53:10.216Z,6.67
2023-04-12T04:54:05.557Z,6.68
2023-04-12T04:55:00.775Z,6.67
2023-04-12T04:55:56.130Z,6.65
2023-04-12T04:56:51.455Z,6.63
2023-04-12T04:57:46.837Z,6.62
2023-04-12T04:58:42.198Z,6.61
2023-04-12T04:59:37.628Z,6.60
2023-04-12T05:00:32.871Z,6.57
2023-04-12T05:01:28.739Z,6.57
2023-04-12T05:02:23.655Z,6.57
2023-04-12T05:03:19.099Z,6.59
2023-04-12T05:04:14.219Z,6.61
2023-04-12T05:05:09.543Z,6.63
2023-04-12T05:06:04.737Z,6.60
2023-04-12T05:06:59.983Z,6.59
2023-04-12T05:07:55.410Z,6.60
2023-04-12T05:08:50.588Z,6.64
2023-04-12T05:09:46.078Z,6.67
2023-04-12T05:10:41.263Z,6.69
2023-04-12T05:11:36.613Z,6.71
2023-04-12T05:12:31.957Z,6.72
2023-04-12T05:13:27.167Z,6.70
2023-04-12T05:14:23.404Z,6.72
2023-04-12T05:15:17.846Z,6.76
2023-04-12T05:16:13.156Z,6.78
2023-04-12T05:17:08.534Z,6.80
2023-04-12T05:18:03.968Z,6.79
2023-04-12T05:18:59.180Z,6.80
2023-04-12T05:19:54.418Z,6.77
2023-04-12T05:20:49.704Z,6.76
2023-04-12T05:21:44.904Z,6.78
2023-04-12T05:22:40.498Z,6.81
2023-04-12T05:23:35.565Z,6.82
2023-04-12T05:24:30.951Z,6.80
2023-04-12T05:25:26.132Z,6.82
2023-04-12T05:26:21.613Z,6.86
2023-04-12T05:27:16.825Z,6.87
2023-04-12T05:28:12.392Z,6.87
2023-04-12T05:29:07.404Z,6.88
2023-04-12T05:30:02.917Z,6.92
2023-04-12T05:30:58.027Z,6.92
2023-04-12T05:31:53.266Z,6.92
2023-04-12T05:32:48.530Z,6.89
2023-04-12T05:33:43.843Z,6.87
2023-04-12T05:34:39.078Z,6.85
2023-04-12T05:35:34.381Z,6.83
2023-04-12T05:36:29.669Z,6.82
2023-04-12T05:37:25.240Z,6.84
2023-04-12T05:38:20.333Z,6.89
2023-04-12T05:39:15.691Z,6.91
2023-04-12T05:40:11.053Z,6.91
2023-04-12T05:41:06.505Z,6.90
2023-04-12T05:42:01.746Z,6.92
2023-04-12T05:42:57.383Z,6.94
2023-04-12T05:43:52.487Z,6.90
2023-04-12T05:44:49.318Z,6.90
2023-04-12T05:45:43.258Z,6.89
2023-04-12T05:46:38.789Z,6.87
2023-04-12T05:47:34.213Z,6.83
2023-04-12T05:48:29.356Z,6.85
2023-04-12T05:49:24.736Z,6.90
2023-04-12T05:50:20.286Z,6.93
2023-04-12T05:51:15.545Z,6.96
2023-04-12T05:52:10.988Z,6.99
2023-04-12T05:53:06.417Z,7.03
2023-04-12T05:54:01.606Z,7.05
2023-04-12T05:54:56.927Z,7.03
2023-04-12T05:55:52.263Z,7.03
2023-04-12T05:56:47.745Z,7.03
2023-04-12T05:57:42.803Z,7.00
2023-04-12T05:58:37.878Z,7.00
2023-04-12T05:59:32.946Z,7.01
2023-04-12T06:00:28.138Z,7.01
2023-04-12T06:01:23.220Z,7.01
2023-04-12T06:02:18.310Z,7.02
2023-04-12T06:03:13.508Z,7.03
2023-04-12T06:04:08.590Z,7.03
2023-04-12T06:05:03.779Z,7.05
2023-04-12T06:05:58.567Z,7.08
2023-04-12T06:06:53.642Z,7.11
2023-04-12T06:07:48.680Z,7.11
2023-04-12T06:08:43.789Z,7.11
2023-04-12T06:09:38.818Z,7.12
2023-04-12T06:10:33.945Z,7.09
2023-04-12T06:11:29.226Z,7.05
2023-04-12T06:12:24.698Z,7.02
2023-04-12T06:13:20.038Z,7.01
2023-04-12T06:14:15.529Z,7.01
2023-04-12T06:15:10.956Z,7.04
2023-04-12T06:16:06.347Z,7.09
2023-04-12T06:17:01.656Z,7.14
2023-04-12T06:17:57.068Z,7.18
2023-04-12T06:18:52.370Z,7.17
2023-04-12T06:19:47.713Z,7.16
2023-04-12T06:20:43.044Z,7.14
2023-04-12T06:21:38.468Z,7.13
2023-04-12T06:22:34.084Z,7.11
2023-04-12T06:23:29.321Z,7.08
2023-04-12T06:24:24.784Z,7.01
2023-04-12T06:25:20.344Z,7.02
2023-04-12T06:26:16.661Z,7.05
2023-04-12T06:27:10.737Z,7.06
2023-04-12T06:28:05.653Z,7.09
2023-04-12T06:29:06.585Z,7.12
2023-04-12T06:30:01.913Z,7.12
2023-04-12T06:30:57.545Z,7.15
2023-04-12T06:31:52.909Z,7.21
2023-04-12T06:32:48.299Z,7.24
2023-04-12T06:33:43.552Z,7.26
2023-04-12T06:34:38.976Z,7.22
2023-04-12T06:35:34.273Z,7.23
2023-04-12T06:36:29.735Z,7.24
2023-04-12T06:37:25.111Z,7.25
2023-04-12T06:38:20.462Z,7.23
2023-04-12T06:39:15.983Z,7.26
2023-04-12T06:40:11.162Z,7.24
2023-04-12T06:41:06.493Z,7.22
2023-04-12T06:42:01.987Z,7.21
2023-04-12T06:42:57.159Z,7.17
2023-04-12T06:43:52.311Z,7.16
2023-04-12T06:44:47.409Z,7.17
2023-04-12T06:45:42.489Z,7.20
2023-04-12T06:46:37.677Z,7.22
2023-04-12T06:47:32.958Z,7.21
2023-04-12T06:48:27.707Z,7.25
2023-04-12T06:49:22.805Z,7.29
2023-04-12T06:50:17.836Z,7.33
2023-04-12T06:51:18.624Z,7.34
2023-04-12T06:52:14.260Z,7.34
2023-04-12T06:53:09.588Z,7.29
2023-04-12T06:54:05.289Z,7.25
2023-04-12T06:55:00.632Z,7.23
2023-04-12T06:55:55.953Z,7.24
2023-04-12T06:56:52.301Z,7.23
2023-04-12T06:57:47.616Z,7.21
2023-04-12T06:58:43.396Z,7.21
2023-04-12T06:59:38.757Z,7.21
2023-04-12T07:00:34.285Z,7.22
2023-04-12T07:01:30.128Z,7.25
2023-04-12T07:02:25.585Z,7.27
2023-04-12T07:03:21.382Z,7.27
2023-04-12T07:04:16.687Z,7.22
2023-04-12T07:05:11.947Z,7.21
2023-04-12T07:06:21.829Z,7.24
2023-04-12T07:07:04.085Z,7.29
2023-04-12T07:07:58.494Z,7.35
2023-04-12T07:08:53.500Z,7.38
2023-04-12T07:09:48.550Z,7.39
2023-04-12T07:10:43.605Z,7.33
2023-04-12T07:11:38.827Z,7.31
2023-04-12T07:12:33.775Z,7.31
2023-04-12T07:13:28.863Z,7.33
2023-04-12T07:14:23.914Z,7.39
2023-04-12T07:15:24.836Z,7.41
2023-04-12T07:16:20.070Z,7.40
2023-04-12T07:17:15.516Z,7.39
2023-04-12T07:18:11.400Z,7.38
2023-04-12T07:19:06.864Z,7.35
2023-04-12T07:20:02.172Z,7.34
2023-04-12T07:20:58.472Z,7.28
2023-04-12T07:21:53.953Z,7.25
2023-04-12T07:22:49.589Z,7.28
2023-04-12T07:23:44.913Z,7.31
2023-04-12T07:24:40.454Z,7.36
2023-04-12T07:25:36.025Z,7.38
2023-04-12T07:26:31.550Z,7.39
2023-04-12T07:27:27.328Z,7.42
2023-04-12T07:28:22.643Z,7.40
2023-04-12T07:29:17.993Z,7.35
2023-04-12T07:30:18.685Z,7.25
2023-04-12T07:31:09.284Z,7.23
2023-04-12T07:32:04.791Z,7.25
2023-04-12T07:33:12.301Z,7.27
2023-04-12T07:33:57.754Z,7.27
2023-04-12T07:34:52.356Z,7.28
2023-04-12T07:35:47.847Z,7.28
2023-04-12T07:36:43.302Z,7.30
2023-04-12T07:37:38.935Z,7.31
2023-04-12T07:38:34.389Z,7.34
2023-04-12T07:39:30.218Z,7.38
2023-04-12T07:40:25.500Z,7.41
2023-04-12T07:41:21.003Z,7.44
2023-04-12T07:42:16.812Z,7.49
2023-04-12T07:43:12.281Z,7.57
2023-04-12T07:44:07.582Z,7.56
2023-04-12T07:45:03.918Z,7.49
2023-04-12T07:45:59.343Z,7.48
2023-04-12T07:46:55.230Z,7.46
2023-04-12T07:47:50.496Z,7.45
2023-04-12T07:48:45.966Z,7.44
2023-04-12T07:49:41.530Z,7.46
2023-04-12T07:50:36.905Z,7.47
2023-04-12T07:51:32.370Z,7.49
2023-04-12T07:52:27.577Z,7.52
2023-04-12T07:53:23.441Z,7.53
2023-04-12T07:54:18.900Z,7.59
2023-04-12T07:55:14.476Z,7.61
2023-04-12T07:56:10.612Z,7.64
2023-04-12T07:57:06.171Z,7.65
2023-04-12T07:58:01.796Z,7.64
2023-04-12T07:58:57.493Z,7.60
2023-04-12T07:59:52.565Z,7.57
2023-04-12T08:00:48.452Z,7.56
2023-04-12T08:01:43.885Z,7.58
2023-04-12T08:02:39.591Z,7.61
2023-04-12T08:03:35.061Z,7.57
2023-04-12T08:04:30.572Z,7.57
2023-04-12T08:05:26.245Z,7.58
2023-04-12T08:06:21.593Z,7.59
2023-04-12T08:07:17.062Z,7.57
2023-04-12T08:08:13.616Z,7.55
2023-04-12T08:09:08.960Z,7.58
2023-04-12T08:10:04.273Z,7.61
2023-04-12T08:10:59.939Z,7.61
2023-04-12T08:11:55.105Z,7.65
2023-04-12T08:12:50.311Z,7.68
2023-04-12T08:13:45.382Z,7.74
2023-04-12T08:14:40.926Z,7.78
2023-04-12T08:15:35.502Z,7.79
2023-04-12T08:16:30.628Z,7.82
2023-04-12T08:17:25.691Z,7.83
2023-04-12T08:18:20.751Z,7.82
2023-04-12T08:19:15.847Z,7.82
2023-04-12T08:20:10.825Z,7.83
2023-04-12T08:21:05.877Z,7.85
2023-04-12T08:22:01.086Z,7.79
2023-04-12T08:22:56.163Z,7.79
2023-04-12T08:23:51.233Z,7.83
2023-04-12T08:24:46.169Z,7.89
2023-04-12T08:25:43.814Z,7.95
2023-04-12T08:26:38.862Z,8.00
2023-04-12T08:27:33.964Z,8.03
2023-04-12T08:28:28.978Z,8.06
2023-04-12T08:29:24.093Z,8.04
2023-04-12T08:30:19.143Z,7.99
2023-04-12T08:31:14.349Z,7.99
2023-04-12T08:32:09.275Z,8.00
2023-04-12T08:33:04.499Z,8.06
2023-04-12T08:33:59.480Z,8.06
2023-04-12T08:34:54.492Z,8.09
2023-04-12T08:35:49.847Z,8.10
2023-04-12T08:36:45.592Z,8.11
2023-04-12T08:37:40.969Z,8.14
2023-04-12T08:38:45.495Z,8.18
2023-04-12T08:39:32.987Z,8.22
2023-04-12T08:40:27.557Z,8.30
2023-04-12T08:41:23.148Z,8.26
2023-04-12T08:42:18.571Z,8.29
2023-04-12T08:43:13.846Z,8.37
2023-04-12T08:44:09.620Z,8.36
2023-04-12T08:45:04.928Z,8.39
2023-04-12T08:46:00.631Z,8.37
2023-04-12T08:46:56.736Z,8.32
2023-04-12T08:47:52.229Z,8.31
2023-04-12T08:48:48.047Z,8.38
2023-04-12T08:49:43.481Z,8.46
2023-04-12T08:50:38.818Z,8.51
2023-04-12T08:51:34.653Z,8.58
2023-04-12T08:52:30.026Z,8.66
2023-04-12T08:53:25.964Z,8.75
2023-04-12T08:54:21.233Z,8.77
2023-04-12T08:55:17.737Z,8.73
2023-04-12T08:56:12.333Z,8.73
2023-04-12T08:57:07.686Z,8.72
2023-04-12T08:58:03.194Z,8.69
2023-04-12T08:58:59.391Z,8.71
2023-04-12T08:59:55.124Z,8.76
2023-04-12T09:00:50.317Z,8.86
2023-04-12T09:01:47.024Z,8.97
2023-04-12T09:02:42.570Z,9.03
2023-04-12T09:03:38.471Z,9.11
2023-04-12T09:04:33.791Z,9.12
2023-04-12T09:05:29.472Z,9.16
2023-04-12T09:06:24.885Z,9.22
2023-04-12T09:07:20.412Z,9.27
2023-04-12T09:08:16.310Z,9.35
2023-04-12T09:09:11.724Z,9.36
2023-04-12T09:10:07.086Z,9.37
2023-04-12T09:11:02.926Z,9.37
2023-04-12T09:11:58.266Z,9.43
2023-04-12T09:12:53.786Z,9.40
2023-04-12T09:13:50.003Z,9.45
2023-04-12T09:14:45.557Z,9.54
2023-04-12T09:15:41.067Z,9.55
2023-04-12T09:16:36.430Z,9.59
2023-04-12T09:17:33.047Z,9.62
2023-04-12T09:18:28.427Z,9.67
2023-04-12T09:19:23.874Z,9.69
2023-04-12T09:20:19.297Z,9.70
2023-04-12T09:21:14.238Z,9.74
2023-04-12T09:22:09.397Z,9.81
2023-04-12T09:23:04.360Z,9.89
2023-04-12T09:23:59.507Z,9.92
2023-04-12T09:24:54.426Z,9.87
2023-04-12T09:25:49.560Z,9.88
2023-04-12T09:26:44.559Z,9.93
2023-04-12T09:27:39.659Z,9.90
2023-04-12T09:28:34.690Z,9.86
2023-04-12T09:29:29.696Z,9.81
2023-04-12T09:30:24.814Z,9.77
2023-04-12T09:31:19.720Z,9.77
2023-04-12T09:32:14.695Z,9.79
2023-04-12T09:33:09.691Z,9.76
2023-04-12T09:34:04.937Z,9.78
2023-04-12T09:35:00.659Z,9.74
2023-04-12T09:35:56.079Z,9.75
2023-04-12T09:36:51.429Z,9.77
2023-04-12T09:37:47.222Z,9.84
2023-04-12T09:38:42.752Z,9.96
2023-04-12T09:39:40.552Z,10.04
2023-04-12T09:40:34.044Z,10.08
2023-04-12T09:41:29.623Z,10.01
2023-04-12T09:42:32.614Z,10.00
2023-04-12T09:43:20.609Z,10.02
2023-04-12T09:44:14.849Z,10.07
2023-04-12T09:45:09.856Z,10.12
2023-04-12T09:46:05.086Z,10.19
2023-04-12T09:46:59.893Z,10.26
2023-04-12T09:47:55.046Z,10.31
2023-04-12T09:48:51.094Z,10.32
2023-04-12T09:49:46.568Z,10.38
2023-04-12T09:50:42.596Z,10.41
2023-04-12T09:51:37.895Z,10.46
2023-04-12T09:52:33.309Z,10.52
2023-04-12T09:53:29.096Z,10.58
2023-04-12T09:54:24.482Z,10.67
2023-04-12T09:55:20.502Z,10.71
2023-04-12T09:56:15.681Z,10.76
2023-04-12T09:57:11.142Z,10.85
2023-04-12T09:58:06.998Z,10.89
2023-04-12T09:59:02.518Z,10.93
2023-04-12T09:59:58.171Z,10.93
2023-04-12T10:00:54.268Z,10.96
2023-04-12T10:01:49.753Z,11.02
2023-04-12T10:02:46.887Z,10.97
2023-04-12T10:03:41.192Z,10.94
2023-04-12T10:04:36.706Z,10.95
2023-04-12T10:05:32.416Z,10.97
2023-04-12T10:06:27.794Z,10.98
2023-04-12T10:07:23.611Z,11.00
2023-04-12T10:08:18.942Z,11.05
2023-04-12T10:09:14.354Z,11.06
2023-04-12T10:10:10.260Z,11.04
2023-04-12T10:11:05.864Z,10.99
2023-04-12T10:12:01.151Z,10.95
2023-04-12T10:12:57.609Z,10.96
2023-04-12T10:13:53.154Z,10.96
2023-04-12T10:14:49.090Z,10.97
2023-04-12T10:15:44.743Z,11.00
2023-04-12T10:16:40.271Z,11.06
2023-04-12T10:17:35.948Z,11.11
2023-04-12T10:18:31.363Z,11.07
2023-04-12T10:19:27.224Z,11.12
2023-04-12T10:20:24.813Z,11.17
2023-04-12T10:21:18.346Z,11.15
2023-04-12T10:22:14.111Z,11.14
2023-04-12T10:23:09.674Z,11.14
2023-04-12T10:24:05.076Z,11.17
2023-04-12T10:25:01.354Z,11.13
2023-04-12T10:25:56.880Z,11.13
2023-04-12T10:26:52.737Z,11.10
2023-04-12T10:27:48.153Z,11.06
2023-04-12T10:30:10.947Z,10.78
2023-04-12T10:31:04.623Z,11.02
2023-04-12T10:32:00.210Z,11.09
2023-04-12T10:32:55.809Z,11.07
2023-04-12T10:33:51.182Z,11.09
2023-04-12T10:34:46.578Z,11.13
2023-04-12T10:35:42.141Z,11.16
2023-04-12T10:36:37.570Z,11.20
2023-04-12T10:37:33.000Z,11.23
2023-04-12T10:38:28.416Z,11.31
2023-04-12T10:39:24.157Z,11.40
2023-04-12T10:40:19.684Z,11.45
2023-04-12T10:41:15.087Z,11.48
2023-04-12T10:42:10.643Z,11.49
2023-04-12T10:43:06.216Z,11.47
2023-04-12T10:44:01.543Z,11.35
2023-04-12T10:44:58.704Z,11.35
2023-04-12T10:45:52.402Z,11.39
2023-04-12T10:46:48.002Z,11.44
2023-04-12T10:47:43.562Z,11.40
2023-04-12T10:48:38.948Z,11.32
2023-04-12T10:49:34.350Z,11.23
2023-04-12T10:50:29.955Z,11.16
2023-04-12T10:51:25.749Z,11.11
2023-04-12T10:52:21.306Z,11.16
2023-04-12T10:53:16.493Z,11.20
2023-04-12T10:54:12.077Z,11.28
2023-04-12T10:55:07.561Z,11.33
2023-04-12T10:56:03.085Z,11.44
2023-04-12T10:56:58.756Z,11.55
2023-04-12T10:57:54.198Z,11.63
2023-04-12T10:58:49.679Z,11.71
2023-04-12T11:00:40.437Z,11.69
2023-04-12T11:01:38.664Z,11.70
2023-04-12T11:02:31.572Z,11.65
2023-04-12T11:03:27.055Z,11.56
2023-04-12T11:04:22.808Z,11.54
2023-04-12T11:05:18.084Z,11.48
2023-04-12T11:07:10.137Z,11.63
2023-04-12T11:08:04.364Z,11.68
2023-04-12T11:09:00.164Z,11.69
2023-04-12T11:09:55.258Z,11.68
2023-04-12T11:10:50.785Z,11.76
2023-04-12T11:11:46.250Z,11.88
2023-04-12T11:12:41.858Z,11.97
2023-04-12T11:13:37.169Z,11.94
2023-04-12T11:14:32.717Z,11.88
2023-04-12T11:15:28.052Z,11.89
2023-04-12T11:16:23.693Z,11.77
2023-04-12T11:17:19.389Z,11.72
2023-04-12T11:18:14.699Z,11.75
2023-04-12T11:19:10.020Z,11.88
2023-04-12T11:20:05.529Z,11.94
2023-04-12T11:21:00.865Z,11.94
2023-04-12T11:21:56.268Z,11.98
2023-04-12T11:22:51.774Z,12.05
2023-04-12T11:23:47.126Z,12.11
2023-04-12T11:24:42.585Z,12.18
2023-04-12T11:25:38.136Z,12.25
2023-04-12T11:26:33.551Z,12.27
2023-04-12T11:27:29.187Z,12.19
2023-04-12T11:28:29.848Z,12.20
2023-04-12T11:29:20.992Z,12.26
2023-04-12T11:30:15.622Z,12.30
2023-04-12T11:31:11.067Z,12.33
2023-04-12T11:32:06.534Z,12.29
2023-04-12T11:33:02.032Z,12.27
2023-04-12T11:33:57.613Z,12.28
2023-04-12T11:34:53.033Z,12.34
2023-04-12T11:35:48.470Z,12.34
2023-04-12T11:36:43.899Z,12.32
2023-04-12T11:37:39.316Z,12.27
2023-04-12T11:38:34.996Z,12.30
2023-04-12T11:39:31.295Z,12.32
2023-04-12T11:40:25.764Z,12.30
2023-04-12T11:41:21.080Z,12.28
2023-04-12T11:42:16.520Z,12.28
2023-04-12T11:43:11.948Z,12.28
2023-04-12T11:44:07.398Z,12.26
2023-04-12T11:45:07.731Z,12.29
2023-04-12T11:45:59.333Z,12.35
2023-04-12T11:46:53.820Z,12.40
2023-04-12T11:47:49.406Z,12.35
2023-04-12T11:48:44.858Z,12.30
2023-04-12T11:49:40.225Z,12.39
2023-04-12T11:50:35.819Z,12.49
2023-04-12T11:51:32.615Z,12.48
2023-04-12T11:52:26.527Z,12.44
2023-04-12T11:53:22.132Z,12.48
2023-04-12T11:54:17.473Z,12.49
2023-04-12T11:55:12.829Z,12.51
2023-04-12T11:56:08.153Z,12.55
2023-04-12T11:57:05.644Z,12.65
2023-04-12T11:57:59.181Z,12.75
2023-04-12T11:58:54.679Z,12.96
2023-04-12T11:59:50.148Z,13.06
2023-04-12T12:00:45.497Z,13.13
2023-04-12T12:01:40.928Z,13.22
2023-04-12T12:02:43.146Z,13.16
2023-04-12T12:03:33.115Z,13.14
2023-04-12T12:04:27.776Z,12.99
2023-04-12T12:05:23.018Z,12.88
2023-04-12T12:06:19.021Z,12.95
2023-04-12T12:07:14.173Z,13.11
2023-04-12T12:08:09.602Z,13.39
2023-04-12T12:09:05.035Z,13.55
2023-04-12T12:10:00.642Z,13.53
2023-04-12T12:11:06.441Z,13.41
2023-04-12T12:11:52.411Z,13.35
2023-04-12T12:12:46.934Z,13.46
2023-04-12T12:13:43.073Z,13.51
2023-04-12T12:14:37.853Z,13.65
2023-04-12T12:15:33.464Z,13.61
2023-04-12T12:16:28.946Z,13.65
2023-04-12T12:17:24.282Z,13.72